sensor_id;sensor_type;location;lat;lon;timestamp;P1;durP1;ratioP1;P2;durP2;ratioP2
11203;SDS011;5659;49.408;11.116;2022-07-12T00:01:20;6.13;;;2.67;;
11203;SDS011;5659;49.408;11.116;2022-07-12T00:03:46;4.60;;;2.97;;
11203;SDS011;5659;49.408;11.116;2022-07-12T00:06:12;3.45;;;2.50;;
11203;SDS011;5659;49.408;11.116;2022-07-12T00:08:38;5.13;;;2.53;;
11203;SDS011;5659;49.408;11.116;2022-07-12T00:11:04;5.38;;;2.65;;
11203;SDS011;5659;49.408;11.116;2022-07-12T00:13:30;5.50;;;2.92;;
11203;SDS011;5659;49.408;11.116;2022-07-12T00:15:57;4.60;;;3.05;;
11203;SDS011;5659;49.408;11.116;2022-07-12T00:18:23;8.75;;;2.60;;
11203;SDS011;5659;49.408;11.116;2022-07-12T00:20:49;4.55;;;2.83;;
11203;SDS011;5659;49.408;11.116;2022-07-12T00:23:15;9.90;;;2.90;;
11203;SDS011;5659;49.408;11.116;2022-07-12T00:25:41;3.90;;;2.88;;
11203;SDS011;5659;49.408;11.116;2022-07-12T00:28:07;7.55;;;3.42;;
11203;SDS011;5659;49.408;11.116;2022-07-12T00:30:33;8.43;;;3.42;;
11203;SDS011;5659;49.408;11.116;2022-07-12T00:33:00;5.63;;;3.10;;
11203;SDS011;5659;49.408;11.116;2022-07-12T00:35:26;7.60;;;3.47;;
11203;SDS011;5659;49.408;11.116;2022-07-12T00:37:52;4.43;;;3.13;;
11203;SDS011;5659;49.408;11.116;2022-07-12T00:40:18;4.63;;;2.80;;
11203;SDS011;5659;49.408;11.116;2022-07-12T00:42:44;5.07;;;2.80;;
11203;SDS011;5659;49.408;11.116;2022-07-12T00:45:10;3.53;;;2.55;;
11203;SDS011;5659;49.408;11.116;2022-07-12T00:47:40;3.75;;;2.42;;
11203;SDS011;5659;49.408;11.116;2022-07-12T00:50:10;3.30;;;2.40;;
11203;SDS011;5659;49.408;11.116;2022-07-12T00:52:37;3.75;;;2.22;;
11203;SDS011;5659;49.408;11.116;2022-07-12T00:55:03;3.72;;;2.58;;
11203;SDS011;5659;49.408;11.116;2022-07-12T00:57:31;4.07;;;2.40;;
11203;SDS011;5659;49.408;11.116;2022-07-12T00:59:57;5.78;;;2.60;;
11203;SDS011;5659;49.408;11.116;2022-07-12T01:02:23;2.70;;;2.22;;
11203;SDS011;5659;49.408;11.116;2022-07-12T01:04:50;2.50;;;2.30;;
11203;SDS011;5659;49.408;11.116;2022-07-12T01:07:16;2.38;;;2.15;;
11203;SDS011;5659;49.408;11.116;2022-07-12T01:09:43;4.45;;;2.50;;
11203;SDS011;5659;49.408;11.116;2022-07-12T01:12:09;4.00;;;2.40;;
11203;SDS011;5659;49.408;11.116;2022-07-12T01:14:35;3.03;;;2.55;;
11203;SDS011;5659;49.408;11.116;2022-07-12T01:17:01;3.78;;;2.60;;
11203;SDS011;5659;49.408;11.116;2022-07-12T01:19:28;2.55;;;2.25;;
11203;SDS011;5659;49.408;11.116;2022-07-12T01:21:54;4.25;;;2.55;;
11203;SDS011;5659;49.408;11.116;2022-07-12T01:24:22;3.40;;;2.40;;
11203;SDS011;5659;49.408;11.116;2022-07-12T01:26:49;2.63;;;2.30;;
11203;SDS011;5659;49.408;11.116;2022-07-12T01:29:16;3.20;;;2.38;;
11203;SDS011;5659;49.408;11.116;2022-07-12T01:31:42;3.22;;;2.40;;
11203;SDS011;5659;49.408;11.116;2022-07-12T01:34:08;4.50;;;2.75;;
11203;SDS011;5659;49.408;11.116;2022-07-12T01:36:34;2.55;;;2.20;;
11203;SDS011;5659;49.408;11.116;2022-07-12T01:39:03;3.60;;;2.78;;
11203;SDS011;5659;49.408;11.116;2022-07-12T01:41:30;4.43;;;2.60;;
11203;SDS011;5659;49.408;11.116;2022-07-12T01:43:56;4.33;;;2.67;;
11203;SDS011;5659;49.408;11.116;2022-07-12T01:46:23;4.60;;;2.73;;
11203;SDS011;5659;49.408;11.116;2022-07-12T01:48:49;9.20;;;2.43;;
11203;SDS011;5659;49.408;11.116;2022-07-12T01:51:15;4.72;;;2.33;;
11203;SDS011;5659;49.408;11.116;2022-07-12T01:53:41;3.77;;;2.50;;
11203;SDS011;5659;49.408;11.116;2022-07-12T01:56:07;6.37;;;2.83;;
11203;SDS011;5659;49.408;11.116;2022-07-12T01:58:34;5.47;;;2.53;;
11203;SDS011;5659;49.408;11.116;2022-07-12T02:01:00;4.20;;;2.90;;
11203;SDS011;5659;49.408;11.116;2022-07-12T02:03:26;4.30;;;2.40;;
11203;SDS011;5659;49.408;11.116;2022-07-12T02:05:52;3.25;;;2.50;;
11203;SDS011;5659;49.408;11.116;2022-07-12T02:08:18;3.95;;;2.50;;
11203;SDS011;5659;49.408;11.116;2022-07-12T02:10:44;4.75;;;2.75;;
11203;SDS011;5659;49.408;11.116;2022-07-12T02:13:10;2.90;;;2.60;;
11203;SDS011;5659;49.408;11.116;2022-07-12T02:15:36;4.00;;;2.57;;
11203;SDS011;5659;49.408;11.116;2022-07-12T02:18:02;4.27;;;2.60;;
11203;SDS011;5659;49.408;11.116;2022-07-12T02:20:28;3.88;;;2.50;;
11203;SDS011;5659;49.408;11.116;2022-07-12T02:22:54;2.80;;;2.30;;
11203;SDS011;5659;49.408;11.116;2022-07-12T02:25:20;4.03;;;2.50;;
11203;SDS011;5659;49.408;11.116;2022-07-12T02:27:46;5.18;;;2.60;;
11203;SDS011;5659;49.408;11.116;2022-07-12T02:30:12;3.77;;;2.40;;
11203;SDS011;5659;49.408;11.116;2022-07-12T02:32:39;2.55;;;2.35;;
11203;SDS011;5659;49.408;11.116;2022-07-12T02:35:05;3.77;;;2.63;;
11203;SDS011;5659;49.408;11.116;2022-07-12T02:37:31;4.40;;;2.60;;
11203;SDS011;5659;49.408;11.116;2022-07-12T02:39:57;2.58;;;2.38;;
11203;SDS011;5659;49.408;11.116;2022-07-12T02:42:42;3.37;;;2.53;;
11203;SDS011;5659;49.408;11.116;2022-07-12T02:45:08;3.30;;;2.70;;
11203;SDS011;5659;49.408;11.116;2022-07-12T02:47:38;3.43;;;2.90;;
11203;SDS011;5659;49.408;11.116;2022-07-12T02:50:05;4.57;;;2.77;;
11203;SDS011;5659;49.408;11.116;2022-07-12T02:52:31;6.43;;;3.03;;
11203;SDS011;5659;49.408;11.116;2022-07-12T02:54:57;5.03;;;2.90;;
11203;SDS011;5659;49.408;11.116;2022-07-12T02:57:23;4.07;;;3.27;;
11203;SDS011;5659;49.408;11.116;2022-07-12T02:59:49;6.07;;;3.57;;
11203;SDS011;5659;49.408;11.116;2022-07-12T03:02:15;8.70;;;3.77;;
11203;SDS011;5659;49.408;11.116;2022-07-12T03:04:40;5.03;;;3.43;;
11203;SDS011;5659;49.408;11.116;2022-07-12T03:07:06;7.57;;;3.60;;
11203;SDS011;5659;49.408;11.116;2022-07-12T03:09:32;6.63;;;3.70;;
11203;SDS011;5659;49.408;11.116;2022-07-12T03:11:58;5.13;;;3.17;;
11203;SDS011;5659;49.408;11.116;2022-07-12T03:14:24;8.30;;;4.00;;
11203;SDS011;5659;49.408;11.116;2022-07-12T03:16:51;5.07;;;3.57;;
11203;SDS011;5659;49.408;11.116;2022-07-12T03:19:17;4.37;;;3.30;;
11203;SDS011;5659;49.408;11.116;2022-07-12T03:21:43;4.23;;;3.40;;
11203;SDS011;5659;49.408;11.116;2022-07-12T03:24:09;4.00;;;3.60;;
11203;SDS011;5659;49.408;11.116;2022-07-12T03:26:35;4.57;;;3.70;;
11203;SDS011;5659;49.408;11.116;2022-07-12T03:29:01;4.50;;;3.63;;
11203;SDS011;5659;49.408;11.116;2022-07-12T03:31:27;4.20;;;3.50;;
11203;SDS011;5659;49.408;11.116;2022-07-12T03:33:53;4.40;;;3.77;;
11203;SDS011;5659;49.408;11.116;2022-07-12T03:36:20;7.83;;;3.83;;
11203;SDS011;5659;49.408;11.116;2022-07-12T03:38:46;5.70;;;3.73;;
11203;SDS011;5659;49.408;11.116;2022-07-12T03:41:12;5.47;;;3.70;;
11203;SDS011;5659;49.408;11.116;2022-07-12T03:43:38;6.23;;;3.80;;
11203;SDS011;5659;49.408;11.116;2022-07-12T03:46:04;3.87;;;3.50;;
11203;SDS011;5659;49.408;11.116;2022-07-12T03:48:31;4.30;;;3.90;;
11203;SDS011;5659;49.408;11.116;2022-07-12T03:50:57;4.10;;;3.53;;
11203;SDS011;5659;49.408;11.116;2022-07-12T03:53:23;6.53;;;4.10;;
11203;SDS011;5659;49.408;11.116;2022-07-12T03:55:49;4.87;;;3.77;;
11203;SDS011;5659;49.408;11.116;2022-07-12T03:58:15;5.13;;;3.73;;
11203;SDS011;5659;49.408;11.116;2022-07-12T04:00:41;6.13;;;3.97;;
11203;SDS011;5659;49.408;11.116;2022-07-12T04:03:08;5.17;;;3.70;;
11203;SDS011;5659;49.408;11.116;2022-07-12T04:05:35;8.63;;;4.00;;
11203;SDS011;5659;49.408;11.116;2022-07-12T04:08:01;4.87;;;3.80;;
11203;SDS011;5659;49.408;11.116;2022-07-12T04:10:27;5.63;;;3.90;;
11203;SDS011;5659;49.408;11.116;2022-07-12T04:12:53;4.30;;;3.90;;
11203;SDS011;5659;49.408;11.116;2022-07-12T04:15:19;6.47;;;3.50;;
11203;SDS011;5659;49.408;11.116;2022-07-12T04:17:45;6.63;;;4.33;;
11203;SDS011;5659;49.408;11.116;2022-07-12T04:20:11;4.77;;;4.10;;
11203;SDS011;5659;49.408;11.116;2022-07-12T04:22:37;4.30;;;3.90;;
11203;SDS011;5659;49.408;11.116;2022-07-12T04:25:04;4.33;;;3.93;;
11203;SDS011;5659;49.408;11.116;2022-07-12T04:27:31;5.70;;;4.70;;
11203;SDS011;5659;49.408;11.116;2022-07-12T04:29:57;6.77;;;4.97;;
11203;SDS011;5659;49.408;11.116;2022-07-12T04:32:23;7.85;;;5.13;;
11203;SDS011;5659;49.408;11.116;2022-07-12T04:34:48;7.20;;;5.37;;
11203;SDS011;5659;49.408;11.116;2022-07-12T04:37:14;6.72;;;5.80;;
11203;SDS011;5659;49.408;11.116;2022-07-12T04:39:40;8.30;;;5.90;;
11203;SDS011;5659;49.408;11.116;2022-07-12T04:42:06;6.83;;;5.70;;
11203;SDS011;5659;49.408;11.116;2022-07-12T04:44:32;7.85;;;5.90;;
11203;SDS011;5659;49.408;11.116;2022-07-12T04:46:58;8.75;;;5.80;;
11203;SDS011;5659;49.408;11.116;2022-07-12T04:49:24;8.38;;;5.60;;
11203;SDS011;5659;49.408;11.116;2022-07-12T04:51:50;6.32;;;5.22;;
11203;SDS011;5659;49.408;11.116;2022-07-12T04:54:16;10.83;;;5.77;;
11203;SDS011;5659;49.408;11.116;2022-07-12T04:56:42;6.43;;;5.25;;
11203;SDS011;5659;49.408;11.116;2022-07-12T04:59:08;7.63;;;5.87;;
11203;SDS011;5659;49.408;11.116;2022-07-12T05:01:34;7.60;;;5.70;;
11203;SDS011;5659;49.408;11.116;2022-07-12T05:04:00;7.70;;;5.80;;
11203;SDS011;5659;49.408;11.116;2022-07-12T05:06:27;11.65;;;5.47;;
11203;SDS011;5659;49.408;11.116;2022-07-12T05:08:52;6.15;;;5.18;;
11203;SDS011;5659;49.408;11.116;2022-07-12T05:11:18;9.70;;;5.10;;
11203;SDS011;5659;49.408;11.116;2022-07-12T05:13:44;7.88;;;5.32;;
11203;SDS011;5659;49.408;11.116;2022-07-12T05:16:11;6.22;;;5.18;;
11203;SDS011;5659;49.408;11.116;2022-07-12T05:18:37;5.80;;;5.22;;
11203;SDS011;5659;49.408;11.116;2022-07-12T05:21:03;7.97;;;5.38;;
11203;SDS011;5659;49.408;11.116;2022-07-12T05:23:29;6.35;;;5.45;;
11203;SDS011;5659;49.408;11.116;2022-07-12T05:25:55;4.72;;;4.32;;
11203;SDS011;5659;49.408;11.116;2022-07-12T05:28:21;6.65;;;4.38;;
11203;SDS011;5659;49.408;11.116;2022-07-12T05:30:47;8.65;;;4.80;;
11203;SDS011;5659;49.408;11.116;2022-07-12T05:33:13;8.10;;;4.90;;
11203;SDS011;5659;49.408;11.116;2022-07-12T05:35:39;6.75;;;4.70;;
11203;SDS011;5659;49.408;11.116;2022-07-12T05:38:05;4.57;;;4.00;;
11203;SDS011;5659;49.408;11.116;2022-07-12T05:40:31;4.70;;;3.90;;
11203;SDS011;5659;49.408;11.116;2022-07-12T05:42:57;4.47;;;4.03;;
11203;SDS011;5659;49.408;11.116;2022-07-12T05:45:23;6.07;;;3.72;;
11203;SDS011;5659;49.408;11.116;2022-07-12T05:47:50;6.07;;;3.55;;
11203;SDS011;5659;49.408;11.116;2022-07-12T05:50:16;3.67;;;3.33;;
11203;SDS011;5659;49.408;11.116;2022-07-12T05:52:42;3.65;;;3.13;;
11203;SDS011;5659;49.408;11.116;2022-07-12T05:55:26;2.88;;;2.55;;
11203;SDS011;5659;49.408;11.116;2022-07-12T05:57:52;4.93;;;2.85;;
11203;SDS011;5659;49.408;11.116;2022-07-12T06:00:18;2.83;;;2.63;;
11203;SDS011;5659;49.408;11.116;2022-07-12T06:02:44;3.47;;;2.78;;
11203;SDS011;5659;49.408;11.116;2022-07-12T06:05:10;3.55;;;2.72;;
11203;SDS011;5659;49.408;11.116;2022-07-12T06:07:36;2.55;;;2.35;;
11203;SDS011;5659;49.408;11.116;2022-07-12T06:10:02;4.13;;;2.15;;
11203;SDS011;5659;49.408;11.116;2022-07-12T06:12:29;2.85;;;2.20;;
11203;SDS011;5659;49.408;11.116;2022-07-12T06:14:55;5.75;;;2.20;;
11203;SDS011;5659;49.408;11.116;2022-07-12T06:17:21;2.45;;;2.20;;
11203;SDS011;5659;49.408;11.116;2022-07-12T06:19:48;2.53;;;2.03;;
11203;SDS011;5659;49.408;11.116;2022-07-12T06:22:14;2.53;;;2.33;;
11203;SDS011;5659;49.408;11.116;2022-07-12T06:24:40;2.40;;;2.20;;
11203;SDS011;5659;49.408;11.116;2022-07-12T06:27:06;1.92;;;1.70;;
11203;SDS011;5659;49.408;11.116;2022-07-12T06:29:32;7.72;;;1.90;;
11203;SDS011;5659;49.408;11.116;2022-07-12T06:31:58;2.25;;;1.58;;
11203;SDS011;5659;49.408;11.116;2022-07-12T06:34:25;4.53;;;1.83;;
11203;SDS011;5659;49.408;11.116;2022-07-12T06:36:50;1.73;;;1.50;;
11203;SDS011;5659;49.408;11.116;2022-07-12T06:39:17;2.95;;;1.65;;
11203;SDS011;5659;49.408;11.116;2022-07-12T06:41:43;4.35;;;1.60;;
11203;SDS011;5659;49.408;11.116;2022-07-12T06:44:09;1.73;;;1.50;;
11203;SDS011;5659;49.408;11.116;2022-07-12T06:46:35;1.55;;;1.42;;
11203;SDS011;5659;49.408;11.116;2022-07-12T06:49:00;1.83;;;1.60;;
11203;SDS011;5659;49.408;11.116;2022-07-12T06:51:26;2.25;;;1.70;;
11203;SDS011;5659;49.408;11.116;2022-07-12T06:53:52;4.03;;;1.58;;
11203;SDS011;5659;49.408;11.116;2022-07-12T06:56:18;1.88;;;1.63;;
11203;SDS011;5659;49.408;11.116;2022-07-12T06:58:44;3.30;;;1.77;;
11203;SDS011;5659;49.408;11.116;2022-07-12T07:01:10;6.05;;;1.70;;
11203;SDS011;5659;49.408;11.116;2022-07-12T07:03:36;2.50;;;1.75;;
11203;SDS011;5659;49.408;11.116;2022-07-12T07:06:02;2.83;;;1.80;;
11203;SDS011;5659;49.408;11.116;2022-07-12T07:08:28;1.65;;;1.55;;
11203;SDS011;5659;49.408;11.116;2022-07-12T07:10:56;1.70;;;1.50;;
11203;SDS011;5659;49.408;11.116;2022-07-12T07:13:22;2.08;;;1.88;;
11203;SDS011;5659;49.408;11.116;2022-07-12T07:15:48;2.22;;;1.80;;
11203;SDS011;5659;49.408;11.116;2022-07-12T07:18:14;8.85;;;1.80;;
11203;SDS011;5659;49.408;11.116;2022-07-12T07:20:40;2.00;;;1.73;;
11203;SDS011;5659;49.408;11.116;2022-07-12T07:23:06;2.40;;;1.63;;
11203;SDS011;5659;49.408;11.116;2022-07-12T07:25:32;2.00;;;1.80;;
11203;SDS011;5659;49.408;11.116;2022-07-12T07:27:58;3.75;;;1.83;;
11203;SDS011;5659;49.408;11.116;2022-07-12T07:30:24;7.25;;;1.80;;
11203;SDS011;5659;49.408;11.116;2022-07-12T07:33:08;3.05;;;1.73;;
11203;SDS011;5659;49.408;11.116;2022-07-12T07:35:34;5.45;;;1.90;;
11203;SDS011;5659;49.408;11.116;2022-07-12T07:38:00;2.17;;;1.60;;
11203;SDS011;5659;49.408;11.116;2022-07-12T07:40:26;2.97;;;1.90;;
11203;SDS011;5659;49.408;11.116;2022-07-12T07:42:52;2.28;;;1.58;;
11203;SDS011;5659;49.408;11.116;2022-07-12T07:45:18;3.53;;;1.60;;
11203;SDS011;5659;49.408;11.116;2022-07-12T07:47:47;2.08;;;1.45;;
11203;SDS011;5659;49.408;11.116;2022-07-12T07:50:14;4.07;;;1.58;;
11203;SDS011;5659;49.408;11.116;2022-07-12T07:52:40;2.17;;;1.48;;
11203;SDS011;5659;49.408;11.116;2022-07-12T07:55:07;3.85;;;1.50;;
11203;SDS011;5659;49.408;11.116;2022-07-12T07:57:33;1.75;;;1.50;;
11203;SDS011;5659;49.408;11.116;2022-07-12T07:59:59;8.15;;;1.83;;
11203;SDS011;5659;49.408;11.116;2022-07-12T08:02:25;2.65;;;1.40;;
11203;SDS011;5659;49.408;11.116;2022-07-12T08:04:51;5.95;;;2.33;;
11203;SDS011;5659;49.408;11.116;2022-07-12T08:07:17;2.67;;;1.70;;
11203;SDS011;5659;49.408;11.116;2022-07-12T08:09:43;2.60;;;1.70;;
11203;SDS011;5659;49.408;11.116;2022-07-12T08:12:09;1.80;;;1.20;;
11203;SDS011;5659;49.408;11.116;2022-07-12T08:14:35;1.52;;;1.40;;
11203;SDS011;5659;49.408;11.116;2022-07-12T08:17:01;1.60;;;1.30;;
11203;SDS011;5659;49.408;11.116;2022-07-12T08:19:27;8.68;;;1.55;;
11203;SDS011;5659;49.408;11.116;2022-07-12T08:21:53;3.55;;;1.20;;
11203;SDS011;5659;49.408;11.116;2022-07-12T08:24:19;2.50;;;1.50;;
11203;SDS011;5659;49.408;11.116;2022-07-12T08:26:45;3.13;;;1.42;;
11203;SDS011;5659;49.408;11.116;2022-07-12T08:29:11;2.92;;;1.27;;
11203;SDS011;5659;49.408;11.116;2022-07-12T08:31:37;1.75;;;1.25;;
11203;SDS011;5659;49.408;11.116;2022-07-12T08:34:03;1.30;;;1.10;;
11203;SDS011;5659;49.408;11.116;2022-07-12T08:36:29;1.65;;;1.20;;
11203;SDS011;5659;49.408;11.116;2022-07-12T08:38:55;3.17;;;1.00;;
11203;SDS011;5659;49.408;11.116;2022-07-12T08:41:21;1.40;;;0.93;;
11203;SDS011;5659;49.408;11.116;2022-07-12T08:43:47;2.28;;;0.98;;
11203;SDS011;5659;49.408;11.116;2022-07-12T08:46:13;2.28;;;1.17;;
11203;SDS011;5659;49.408;11.116;2022-07-12T08:48:41;2.80;;;1.15;;
11203;SDS011;5659;49.408;11.116;2022-07-12T08:51:08;2.78;;;1.00;;
11203;SDS011;5659;49.408;11.116;2022-07-12T08:53:34;3.80;;;1.15;;
11203;SDS011;5659;49.408;11.116;2022-07-12T08:56:01;1.73;;;1.20;;
11203;SDS011;5659;49.408;11.116;2022-07-12T08:58:27;3.33;;;1.00;;
11203;SDS011;5659;49.408;11.116;2022-07-12T09:00:53;5.18;;;1.35;;
11203;SDS011;5659;49.408;11.116;2022-07-12T09:03:19;2.25;;;1.00;;
11203;SDS011;5659;49.408;11.116;2022-07-12T09:05:49;1.08;;;0.98;;
11203;SDS011;5659;49.408;11.116;2022-07-12T09:08:24;2.10;;;1.10;;
11203;SDS011;5659;49.408;11.116;2022-07-12T09:13:17;1.33;;;1.10;;
11203;SDS011;5659;49.408;11.116;2022-07-12T09:15:43;1.00;;;0.90;;
11203;SDS011;5659;49.408;11.116;2022-07-12T09:18:11;1.42;;;0.93;;
11203;SDS011;5659;49.408;11.116;2022-07-12T09:20:51;1.05;;;0.90;;
11203;SDS011;5659;49.408;11.116;2022-07-12T09:23:17;1.13;;;0.90;;
11203;SDS011;5659;49.408;11.116;2022-07-12T09:25:44;2.78;;;1.10;;
11203;SDS011;5659;49.408;11.116;2022-07-12T09:28:10;1.15;;;0.88;;
11203;SDS011;5659;49.408;11.116;2022-07-12T09:30:37;1.50;;;0.88;;
11203;SDS011;5659;49.408;11.116;2022-07-12T09:33:12;3.28;;;1.02;;
11203;SDS011;5659;49.408;11.116;2022-07-12T09:38:32;1.35;;;0.70;;
11203;SDS011;5659;49.408;11.116;2022-07-12T09:40:59;0.90;;;0.70;;
11203;SDS011;5659;49.408;11.116;2022-07-12T09:43:26;0.80;;;0.80;;
11203;SDS011;5659;49.408;11.116;2022-07-12T09:45:52;0.80;;;0.80;;
11203;SDS011;5659;49.408;11.116;2022-07-12T09:48:19;1.90;;;0.80;;
11203;SDS011;5659;49.408;11.116;2022-07-12T09:50:47;3.15;;;0.90;;
11203;SDS011;5659;49.408;11.116;2022-07-12T09:53:32;4.68;;;0.88;;
11203;SDS011;5659;49.408;11.116;2022-07-12T09:56:01;0.70;;;0.70;;
11203;SDS011;5659;49.408;11.116;2022-07-12T10:01:07;0.80;;;0.65;;
11203;SDS011;5659;49.408;11.116;2022-07-12T10:03:35;0.82;;;0.80;;
11203;SDS011;5659;49.408;11.116;2022-07-12T10:06:01;1.27;;;0.80;;
11203;SDS011;5659;49.408;11.116;2022-07-12T10:08:28;1.58;;;1.20;;
11203;SDS011;5659;49.408;11.116;2022-07-12T10:10:54;3.35;;;0.90;;
11203;SDS011;5659;49.408;11.116;2022-07-12T10:13:20;3.13;;;0.90;;
11203;SDS011;5659;49.408;11.116;2022-07-12T10:15:47;1.20;;;0.80;;
11203;SDS011;5659;49.408;11.116;2022-07-12T10:18:15;0.75;;;0.75;;
11203;SDS011;5659;49.408;11.116;2022-07-12T10:20:41;1.10;;;0.82;;
11203;SDS011;5659;49.408;11.116;2022-07-12T10:25:43;4.43;;;0.80;;
11203;SDS011;5659;49.408;11.116;2022-07-12T10:28:09;1.17;;;0.90;;
11203;SDS011;5659;49.408;11.116;2022-07-12T10:30:42;0.85;;;0.80;;
11203;SDS011;5659;49.408;11.116;2022-07-12T10:33:18;4.07;;;0.90;;
11203;SDS011;5659;49.408;11.116;2022-07-12T10:36:00;6.82;;;1.20;;
11203;SDS011;5659;49.408;11.116;2022-07-12T10:38:27;2.70;;;1.00;;
11203;SDS011;5659;49.408;11.116;2022-07-12T10:40:53;1.85;;;1.00;;
11203;SDS011;5659;49.408;11.116;2022-07-12T10:43:20;0.60;;;0.60;;
11203;SDS011;5659;49.408;11.116;2022-07-12T10:45:47;0.73;;;0.73;;
11203;SDS011;5659;49.408;11.116;2022-07-12T11:01:02;1.35;;;0.80;;
11203;SDS011;5659;49.408;11.116;2022-07-12T11:03:44;0.90;;;0.70;;
11203;SDS011;5659;49.408;11.116;2022-07-12T11:06:15;1.08;;;0.65;;
11203;SDS011;5659;49.408;11.116;2022-07-12T11:11:20;0.88;;;0.70;;
11203;SDS011;5659;49.408;11.116;2022-07-12T11:13:46;1.02;;;0.80;;
11203;SDS011;5659;49.408;11.116;2022-07-12T11:16:13;0.82;;;0.82;;
11203;SDS011;5659;49.408;11.116;2022-07-12T11:18:39;0.63;;;0.63;;
11203;SDS011;5659;49.408;11.116;2022-07-12T11:21:05;1.75;;;0.75;;
11203;SDS011;5659;49.408;11.116;2022-07-12T11:23:31;3.10;;;1.10;;
11203;SDS011;5659;49.408;11.116;2022-07-12T11:25:58;3.53;;;0.70;;
11203;SDS011;5659;49.408;11.116;2022-07-12T11:28:25;1.08;;;0.63;;
11203;SDS011;5659;49.408;11.116;2022-07-12T11:30:53;0.77;;;0.77;;
11203;SDS011;5659;49.408;11.116;2022-07-12T11:33:24;1.73;;;0.82;;
11203;SDS011;5659;49.408;11.116;2022-07-12T11:35:50;1.15;;;0.68;;
11203;SDS011;5659;49.408;11.116;2022-07-12T11:38:26;0.70;;;0.60;;
11203;SDS011;5659;49.408;11.116;2022-07-12T11:40:56;0.60;;;0.60;;
11203;SDS011;5659;49.408;11.116;2022-07-12T11:43:22;1.02;;;0.70;;
11203;SDS011;5659;49.408;11.116;2022-07-12T11:45:48;0.73;;;0.73;;
11203;SDS011;5659;49.408;11.116;2022-07-12T11:48:14;3.20;;;0.55;;
11203;SDS011;5659;49.408;11.116;2022-07-12T11:50:44;1.15;;;0.65;;
11203;SDS011;5659;49.408;11.116;2022-07-12T11:53:17;1.65;;;0.63;;
11203;SDS011;5659;49.408;11.116;2022-07-12T11:55:44;3.05;;;0.70;;
11203;SDS011;5659;49.408;11.116;2022-07-12T11:58:10;3.15;;;0.70;;
11203;SDS011;5659;49.408;11.116;2022-07-12T12:00:36;3.00;;;0.70;;
11203;SDS011;5659;49.408;11.116;2022-07-12T12:03:03;0.88;;;0.88;;
11203;SDS011;5659;49.408;11.116;2022-07-12T12:05:29;1.08;;;0.85;;
11203;SDS011;5659;49.408;11.116;2022-07-12T12:07:56;2.38;;;0.70;;
11203;SDS011;5659;49.408;11.116;2022-07-12T12:10:22;4.00;;;0.93;;
11203;SDS011;5659;49.408;11.116;2022-07-12T12:12:49;2.35;;;0.68;;
11203;SDS011;5659;49.408;11.116;2022-07-12T12:15:20;1.13;;;0.77;;
11203;SDS011;5659;49.408;11.116;2022-07-12T12:20:26;0.77;;;0.63;;
11203;SDS011;5659;49.408;11.116;2022-07-12T12:22:52;0.80;;;0.80;;
11203;SDS011;5659;49.408;11.116;2022-07-12T12:25:19;1.65;;;0.70;;
11203;SDS011;5659;49.408;11.116;2022-07-12T12:30:12;3.00;;;0.90;;
11203;SDS011;5659;49.408;11.116;2022-07-12T12:35:10;3.70;;;0.70;;
11203;SDS011;5659;49.408;11.116;2022-07-12T12:37:37;0.60;;;0.60;;
11203;SDS011;5659;49.408;11.116;2022-07-12T12:40:05;1.13;;;0.63;;
11203;SDS011;5659;49.408;11.116;2022-07-12T12:42:31;0.80;;;0.70;;
11203;SDS011;5659;49.408;11.116;2022-07-12T12:44:57;1.33;;;0.70;;
11203;SDS011;5659;49.408;11.116;2022-07-12T12:47:24;1.23;;;0.90;;
11203;SDS011;5659;49.408;11.116;2022-07-12T12:49:55;1.45;;;0.73;;
11203;SDS011;5659;49.408;11.116;2022-07-12T12:52:22;3.70;;;0.60;;
11203;SDS011;5659;49.408;11.116;2022-07-12T12:54:49;2.03;;;0.60;;
11203;SDS011;5659;49.408;11.116;2022-07-12T12:57:15;1.88;;;0.82;;
11203;SDS011;5659;49.408;11.116;2022-07-12T12:59:41;1.40;;;0.70;;
11203;SDS011;5659;49.408;11.116;2022-07-12T13:02:07;1.83;;;0.80;;
11203;SDS011;5659;49.408;11.116;2022-07-12T13:04:34;2.03;;;0.73;;
11203;SDS011;5659;49.408;11.116;2022-07-12T13:07:00;2.97;;;0.85;;
11203;SDS011;5659;49.408;11.116;2022-07-12T13:09:26;2.40;;;0.85;;
11203;SDS011;5659;49.408;11.116;2022-07-12T13:11:54;1.60;;;0.60;;
11203;SDS011;5659;49.408;11.116;2022-07-12T13:14:20;1.85;;;0.85;;
11203;SDS011;5659;49.408;11.116;2022-07-12T13:16:46;1.00;;;0.90;;
11203;SDS011;5659;49.408;11.116;2022-07-12T13:19:12;0.85;;;0.80;;
11203;SDS011;5659;49.408;11.116;2022-07-12T13:21:38;0.80;;;0.80;;
11203;SDS011;5659;49.408;11.116;2022-07-12T13:24:04;1.70;;;0.70;;
11203;SDS011;5659;49.408;11.116;2022-07-12T13:26:30;0.70;;;0.70;;
11203;SDS011;5659;49.408;11.116;2022-07-12T13:28:56;1.05;;;0.77;;
11203;SDS011;5659;49.408;11.116;2022-07-12T13:31:23;3.97;;;0.90;;
11203;SDS011;5659;49.408;11.116;2022-07-12T13:33:51;1.38;;;0.70;;
11203;SDS011;5659;49.408;11.116;2022-07-12T13:36:17;0.90;;;0.70;;
11203;SDS011;5659;49.408;11.116;2022-07-12T13:38:43;2.47;;;0.80;;
11203;SDS011;5659;49.408;11.116;2022-07-12T13:41:09;1.00;;;0.88;;
11203;SDS011;5659;49.408;11.116;2022-07-12T13:43:35;2.03;;;0.75;;
11203;SDS011;5659;49.408;11.116;2022-07-12T13:46:01;2.38;;;0.70;;
11203;SDS011;5659;49.408;11.116;2022-07-12T13:48:27;1.48;;;0.80;;
11203;SDS011;5659;49.408;11.116;2022-07-12T13:50:53;2.63;;;0.98;;
11203;SDS011;5659;49.408;11.116;2022-07-12T13:53:19;1.63;;;0.80;;
11203;SDS011;5659;49.408;11.116;2022-07-12T13:55:45;1.73;;;0.65;;
11203;SDS011;5659;49.408;11.116;2022-07-12T13:58:11;4.10;;;0.90;;
11203;SDS011;5659;49.408;11.116;2022-07-12T14:00:41;2.47;;;0.70;;
11203;SDS011;5659;49.408;11.116;2022-07-12T14:03:07;1.17;;;0.73;;
11203;SDS011;5659;49.408;11.116;2022-07-12T14:05:33;1.88;;;0.80;;
11203;SDS011;5659;49.408;11.116;2022-07-12T14:07:59;2.90;;;0.80;;
11203;SDS011;5659;49.408;11.116;2022-07-12T14:10:25;2.55;;;0.80;;
11203;SDS011;5659;49.408;11.116;2022-07-12T14:12:52;2.60;;;0.90;;
11203;SDS011;5659;49.408;11.116;2022-07-12T14:15:18;2.58;;;0.80;;
11203;SDS011;5659;49.408;11.116;2022-07-12T14:17:48;2.42;;;0.80;;
11203;SDS011;5659;49.408;11.116;2022-07-12T14:20:15;1.60;;;0.70;;
11203;SDS011;5659;49.408;11.116;2022-07-12T14:22:41;0.95;;;0.90;;
11203;SDS011;5659;49.408;11.116;2022-07-12T14:25:08;4.30;;;0.60;;
11203;SDS011;5659;49.408;11.116;2022-07-12T14:27:34;2.78;;;0.90;;
11203;SDS011;5659;49.408;11.116;2022-07-12T14:30:01;3.42;;;1.10;;
11203;SDS011;5659;49.408;11.116;2022-07-12T14:32:27;2.13;;;1.00;;
11203;SDS011;5659;49.408;11.116;2022-07-12T14:34:53;4.65;;;0.80;;
11203;SDS011;5659;49.408;11.116;2022-07-12T14:37:19;2.92;;;0.80;;
11203;SDS011;5659;49.408;11.116;2022-07-12T14:39:45;0.70;;;0.70;;
11203;SDS011;5659;49.408;11.116;2022-07-12T14:42:13;5.15;;;1.15;;
11203;SDS011;5659;49.408;11.116;2022-07-12T14:44:39;2.70;;;0.80;;
11203;SDS011;5659;49.408;11.116;2022-07-12T14:47:05;2.35;;;0.60;;
11203;SDS011;5659;49.408;11.116;2022-07-12T14:49:31;1.33;;;0.60;;
11203;SDS011;5659;49.408;11.116;2022-07-12T14:51:57;1.10;;;0.80;;
11203;SDS011;5659;49.408;11.116;2022-07-12T14:54:23;1.80;;;0.63;;
11203;SDS011;5659;49.408;11.116;2022-07-12T14:56:49;1.23;;;0.70;;
11203;SDS011;5659;49.408;11.116;2022-07-12T14:59:15;1.05;;;0.70;;
11203;SDS011;5659;49.408;11.116;2022-07-12T15:01:41;0.85;;;0.60;;
11203;SDS011;5659;49.408;11.116;2022-07-12T15:04:07;1.13;;;0.60;;
11203;SDS011;5659;49.408;11.116;2022-07-12T15:06:33;0.90;;;0.68;;
11203;SDS011;5659;49.408;11.116;2022-07-12T15:08:59;4.13;;;0.90;;
11203;SDS011;5659;49.408;11.116;2022-07-12T15:11:25;0.82;;;0.68;;
11203;SDS011;5659;49.408;11.116;2022-07-12T15:13:51;0.57;;;0.57;;
11203;SDS011;5659;49.408;11.116;2022-07-12T15:16:17;0.93;;;0.70;;
11203;SDS011;5659;49.408;11.116;2022-07-12T15:18:44;2.85;;;0.70;;